sensor_id;sensor_type;location;lat;lon;timestamp;pressure;altitude;pressure_sealevel;temperature;humidity
65760;BME280;52496;51.082;5.066;2023-03-14T00:02:18;98983.59;;;11.61;94.01
65760;BME280;52496;51.082;5.066;2023-03-14T00:04:49;98977.91;;;11.57;93.84
65760;BME280;52496;51.082;5.066;2023-03-14T00:07:20;98987.22;;;11.55;94.61
65760;BME280;52496;51.082;5.066;2023-03-14T00:09:51;98991.78;;;11.54;94.22
65760;BME280;52496;51.082;5.066;2023-03-14T00:12:22;98982.09;;;11.53;94.58
65760;BME280;52496;51.082;5.066;2023-03-14T00:14:52;99002.69;;;11.53;94.73
65760;BME280;52496;51.082;5.066;2023-03-14T00:17:23;99004.81;;;11.51;94.75
65760;BME280;52496;51.082;5.066;2023-03-14T00:19:55;98994.09;;;11.51;94.74
65760;BME280;52496;51.082;5.066;2023-03-14T00:22:26;99002.13;;;11.51;95.02
65760;BME280;52496;51.082;5.066;2023-03-14T00:24:57;98994.09;;;11.51;95.23
65760;BME280;52496;51.082;5.066;2023-03-14T00:27:27;98998.88;;;11.48;95.30
65760;BME280;52496;51.082;5.066;2023-03-14T00:29:58;98999.09;;;11.47;94.44
65760;BME280;52496;51.082;5.066;2023-03-14T00:32:29;98997.47;;;11.46;94.60
65760;BME280;52496;51.082;5.066;2023-03-14T00:35:00;99003.63;;;11.46;94.86
65760;BME280;52496;51.082;5.066;2023-03-14T00:37:30;99004.69;;;11.45;95.13
65760;BME280;52496;51.082;5.066;2023-03-14T00:40:01;99018.09;;;11.45;95.66
65760;BME280;52496;51.082;5.066;2023-03-14T00:42:33;99006.78;;;11.43;95.10
65760;BME280;52496;51.082;5.066;2023-03-14T00:45:04;99002.25;;;11.44;94.85
65760;BME280;52496;51.082;5.066;2023-03-14T00:47:35;99009.47;;;11.43;95.21
65760;BME280;52496;51.082;5.066;2023-03-14T00:50:06;99001.69;;;11.42;95.54
65760;BME280;52496;51.082;5.066;2023-03-14T00:52:36;99010.53;;;11.42;95.36
65760;BME280;52496;51.082;5.066;2023-03-14T00:55:07;99001.44;;;11.43;96.21
65760;BME280;52496;51.082;5.066;2023-03-14T00:57:38;99013.19;;;11.42;96.71
65760;BME280;52496;51.082;5.066;2023-03-14T01:00:09;99013.66;;;11.39;97.14
65760;BME280;52496;51.082;5.066;2023-03-14T01:02:43;99012.84;;;11.39;97.85
65760;BME280;52496;51.082;5.066;2023-03-14T01:05:14;99009.38;;;11.38;99.31
65760;BME280;52496;51.082;5.066;2023-03-14T01:07:44;99007.16;;;11.35;100.00
65760;BME280;52496;51.082;5.066;2023-03-14T01:10:15;98998.53;;;11.33;100.00
65760;BME280;52496;51.082;5.066;2023-03-14T01:12:46;98986.69;;;11.29;100.00
65760;BME280;52496;51.082;5.066;2023-03-14T01:15:17;98986.56;;;11.24;100.00
65760;BME280;52496;51.082;5.066;2023-03-14T01:17:49;98989.72;;;11.21;100.00
65760;BME280;52496;51.082;5.066;2023-03-14T01:20:20;98981.56;;;11.16;100.00
65760;BME280;52496;51.082;5.066;2023-03-14T01:22:50;98981.81;;;11.14;100.00
65760;BME280;52496;51.082;5.066;2023-03-14T01:25:21;98973.19;;;11.12;100.00
65760;BME280;52496;51.082;5.066;2023-03-14T01:27:52;98963.56;;;11.11;100.00
65760;BME280;52496;51.082;5.066;2023-03-14T01:30:22;98958.69;;;11.08;100.00
65760;BME280;52496;51.082;5.066;2023-03-14T01:32:53;98963.19;;;11.08;100.00
65760;BME280;52496;51.082;5.066;2023-03-14T01:35:24;98949.72;;;11.02;100.00
65760;BME280;52496;51.082;5.066;2023-03-14T01:37:55;98946.91;;;10.97;100.00
65760;BME280;52496;51.082;5.066;2023-03-14T01:40:25;98946.56;;;10.94;100.00
65760;BME280;52496;51.082;5.066;2023-03-14T01:42:57;98949.72;;;10.91;100.00
65760;BME280;52496;51.082;5.066;2023-03-14T01:48:42;98940.28;;;10.88;100.00
65760;BME280;52496;51.082;5.066;2023-03-14T01:51:18;98942.16;;;10.88;100.00
65760;BME280;52496;51.082;5.066;2023-03-14T01:53:54;98936.81;;;10.88;100.00
65760;BME280;52496;51.082;5.066;2023-03-14T01:56:27;98940.28;;;10.88;100.00
65760;BME280;52496;51.082;5.066;2023-03-14T01:58:59;98926.13;;;10.88;100.00
65760;BME280;52496;51.082;5.066;2023-03-14T02:01:31;98920.53;;;10.89;100.00
65760;BME280;52496;51.082;5.066;2023-03-14T02:04:05;98920.78;;;10.88;100.00
65760;BME280;52496;51.082;5.066;2023-03-14T02:06:48;98911.94;;;10.87;100.00
65760;BME280;52496;51.082;5.066;2023-03-14T02:09:20;98925.53;;;10.86;100.00
65760;BME280;52496;51.082;5.066;2023-03-14T02:11:51;98920.44;;;10.84;100.00
65760;BME280;52496;51.082;5.066;2023-03-14T02:14:31;98915.88;;;10.85;100.00
65760;BME280;52496;51.082;5.066;2023-03-14T02:17:04;98901.13;;;10.82;100.00
65760;BME280;52496;51.082;5.066;2023-03-14T02:22:26;98903.78;;;10.82;100.00
65760;BME280;52496;51.082;5.066;2023-03-14T02:25:08;98903.19;;;10.80;100.00
65760;BME280;52496;51.082;5.066;2023-03-14T02:27:39;98908.81;;;10.78;100.00
65760;BME280;52496;51.082;5.066;2023-03-14T02:30:29;98898.31;;;10.77;100.00
65760;BME280;52496;51.082;5.066;2023-03-14T02:33:08;98906.81;;;10.74;100.00
65760;BME280;52496;51.082;5.066;2023-03-14T02:35:47;98893.91;;;10.71;100.00
65760;BME280;52496;51.082;5.066;2023-03-14T02:38:31;98899.16;;;10.66;100.00
65760;BME280;52496;51.082;5.066;2023-03-14T02:41:04;98892.63;;;10.62;100.00
65760;BME280;52496;51.082;5.066;2023-03-14T02:43:34;98896.47;;;10.54;100.00
65760;BME280;52496;51.082;5.066;2023-03-14T02:46:07;98894.94;;;10.46;100.00
65760;BME280;52496;51.082;5.066;2023-03-14T02:51:21;98895.31;;;10.38;100.00
65760;BME280;52496;51.082;5.066;2023-03-14T02:53:54;98897.97;;;10.38;100.00
65760;BME280;52496;51.082;5.066;2023-03-14T02:56:24;98904.13;;;10.39;100.00
65760;BME280;52496;51.082;5.066;2023-03-14T02:58:55;98914.56;;;10.40;100.00
65760;BME280;52496;51.082;5.066;2023-03-14T03:01:28;98915.63;;;10.39;100.00
65760;BME280;52496;51.082;5.066;2023-03-14T03:03:58;98926.53;;;10.38;100.00
65760;BME280;52496;51.082;5.066;2023-03-14T03:06:29;98917.59;;;10.32;100.00
65760;BME280;52496;51.082;5.066;2023-03-14T03:08:59;98907.22;;;10.24;100.00
65760;BME280;52496;51.082;5.066;2023-03-14T03:11:30;98911.25;;;10.15;100.00
65760;BME280;52496;51.082;5.066;2023-03-14T03:14:02;98908.34;;;10.04;100.00
65760;BME280;52496;51.082;5.066;2023-03-14T03:16:32;98912.72;;;9.99;100.00
65760;BME280;52496;51.082;5.066;2023-03-14T03:19:03;98902.16;;;9.92;100.00
65760;BME280;52496;51.082;5.066;2023-03-14T03:21:33;98907.00;;;9.83;100.00
65760;BME280;52496;51.082;5.066;2023-03-14T03:24:05;98902.16;;;9.74;100.00
65760;BME280;52496;51.082;5.066;2023-03-14T03:26:37;98898.19;;;9.64;100.00
65760;BME280;52496;51.082;5.066;2023-03-14T03:29:07;98902.22;;;9.55;100.00
65760;BME280;52496;51.082;5.066;2023-03-14T03:31:38;98896.16;;;9.48;100.00
65760;BME280;52496;51.082;5.066;2023-03-14T03:34:09;98904.00;;;9.43;100.00
65760;BME280;52496;51.082;5.066;2023-03-14T03:36:40;98904.44;;;9.40;100.00
65760;BME280;52496;51.082;5.066;2023-03-14T03:39:11;98898.31;;;9.39;100.00
65760;BME280;52496;51.082;5.066;2023-03-14T03:41:42;98894.22;;;9.37;100.00
65760;BME280;52496;51.082;5.066;2023-03-14T03:44:12;98891.00;;;9.35;100.00
65760;BME280;52496;51.082;5.066;2023-03-14T03:46:43;98883.19;;;9.33;100.00
65760;BME280;52496;51.082;5.066;2023-03-14T03:49:14;98881.78;;;9.31;100.00
65760;BME280;52496;51.082;5.066;2023-03-14T03:51:45;98883.88;;;9.29;100.00
65760;BME280;52496;51.082;5.066;2023-03-14T03:54:15;98872.63;;;9.27;100.00
65760;BME280;52496;51.082;5.066;2023-03-14T03:56:46;98879.56;;;9.28;100.00
65760;BME280;52496;51.082;5.066;2023-03-14T03:59:17;98873.22;;;9.29;100.00
65760;BME280;52496;51.082;5.066;2023-03-14T04:01:47;98875.66;;;9.30;100.00
65760;BME280;52496;51.082;5.066;2023-03-14T04:04:18;98878.09;;;9.32;100.00
65760;BME280;52496;51.082;5.066;2023-03-14T04:06:49;98886.69;;;9.34;100.00
65760;BME280;52496;51.082;5.066;2023-03-14T04:09:20;98881.94;;;9.36;100.00
65760;BME280;52496;51.082;5.066;2023-03-14T04:11:50;98870.22;;;9.37;100.00
65760;BME280;52496;51.082;5.066;2023-03-14T04:14:21;98870.63;;;9.40;100.00
65760;BME280;52496;51.082;5.066;2023-03-14T04:16:52;98866.09;;;9.41;100.00
65760;BME280;52496;51.082;5.066;2023-03-14T04:19:22;98861.31;;;9.43;100.00
65760;BME280;52496;51.082;5.066;2023-03-14T04:21:53;98866.44;;;9.45;100.00
65760;BME280;52496;51.082;5.066;2023-03-14T04:24:23;98867.84;;;9.47;100.00
65760;BME280;52496;51.082;5.066;2023-03-14T04:26:54;98870.28;;;9.49;100.00
65760;BME280;52496;51.082;5.066;2023-03-14T04:29:25;98862.88;;;9.51;100.00
65760;BME280;52496;51.082;5.066;2023-03-14T04:31:55;98867.97;;;9.52;100.00
65760;BME280;52496;51.082;5.066;2023-03-14T04:34:26;98849.28;;;9.52;100.00
65760;BME280;52496;51.082;5.066;2023-03-14T04:36:56;98848.28;;;9.53;100.00
65760;BME280;52496;51.082;5.066;2023-03-14T04:39:27;98852.56;;;9.54;100.00
65760;BME280;52496;51.082;5.066;2023-03-14T04:41:58;98842.50;;;9.56;100.00
65760;BME280;52496;51.082;5.066;2023-03-14T04:44:28;98846.78;;;9.57;100.00
65760;BME280;52496;51.082;5.066;2023-03-14T04:46:59;98850.03;;;9.59;100.00
65760;BME280;52496;51.082;5.066;2023-03-14T04:49:30;98871.94;;;9.61;100.00
65760;BME280;52496;51.082;5.066;2023-03-14T04:52:00;98862.94;;;9.62;100.00
65760;BME280;52496;51.082;5.066;2023-03-14T04:54:31;98855.50;;;9.64;100.00
65760;BME280;52496;51.082;5.066;2023-03-14T04:57:01;98842.16;;;9.64;100.00
65760;BME280;52496;51.082;5.066;2023-03-14T04:59:32;98856.09;;;9.67;100.00
65760;BME280;52496;51.082;5.066;2023-03-14T05:02:02;98841.69;;;9.68;100.00
65760;BME280;52496;51.082;5.066;2023-03-14T05:04:33;98834.28;;;9.70;100.00
65760;BME280;52496;51.082;5.066;2023-03-14T05:07:04;98841.47;;;9.69;100.00
65760;BME280;52496;51.082;5.066;2023-03-14T05:09:34;98830.56;;;9.71;100.00
65760;BME280;52496;51.082;5.066;2023-03-14T05:12:05;98836.50;;;9.73;100.00
65760;BME280;52496;51.082;5.066;2023-03-14T05:14:36;98835.22;;;9.75;100.00
65760;BME280;52496;51.082;5.066;2023-03-14T05:17:07;98835.00;;;9.77;100.00
65760;BME280;52496;51.082;5.066;2023-03-14T05:19:38;98832.09;;;9.78;100.00
65760;BME280;52496;51.082;5.066;2023-03-14T05:22:09;98825.97;;;9.78;100.00
65760;BME280;52496;51.082;5.066;2023-03-14T05:24:40;98823.28;;;9.78;100.00
65760;BME280;52496;51.082;5.066;2023-03-14T05:27:10;98827.56;;;9.79;100.00
65760;BME280;52496;51.082;5.066;2023-03-14T05:29:41;98833.72;;;9.79;100.00
65760;BME280;52496;51.082;5.066;2023-03-14T05:32:11;98822.25;;;9.79;100.00
65760;BME280;52496;51.082;5.066;2023-03-14T05:34:42;98823.84;;;9.80;100.00
65760;BME280;52496;51.082;5.066;2023-03-14T05:37:13;98828.16;;;9.81;100.00
65760;BME280;52496;51.082;5.066;2023-03-14T05:39:43;98814.03;;;9.80;100.00
65760;BME280;52496;51.082;5.066;2023-03-14T05:42:14;98820.97;;;9.81;100.00
65760;BME280;52496;51.082;5.066;2023-03-14T05:44:44;98820.16;;;9.81;100.00
65760;BME280;52496;51.082;5.066;2023-03-14T05:47:15;98814.81;;;9.81;100.00
65760;BME280;52496;51.082;5.066;2023-03-14T05:49:45;98817.25;;;9.82;100.00
65760;BME280;52496;51.082;5.066;2023-03-14T05:52:16;98826.31;;;9.81;100.00
65760;BME280;52496;51.082;5.066;2023-03-14T05:54:47;98821.78;;;9.82;100.00
65760;BME280;52496;51.082;5.066;2023-03-14T05:57:18;98827.13;;;9.82;100.00
65760;BME280;52496;51.082;5.066;2023-03-14T05:59:48;98822.38;;;9.84;100.00
65760;BME280;52496;51.082;5.066;2023-03-14T06:02:19;98820.50;;;9.84;100.00
65760;BME280;52496;51.082;5.066;2023-03-14T06:04:49;98826.44;;;9.86;100.00
65760;BME280;52496;51.082;5.066;2023-03-14T06:07:20;98826.22;;;9.88;100.00
65760;BME280;52496;51.082;5.066;2023-03-14T06:09:50;98823.31;;;9.90;100.00
65760;BME280;52496;51.082;5.066;2023-03-14T06:12:21;98828.41;;;9.91;100.00
65760;BME280;52496;51.082;5.066;2023-03-14T06:14:51;98829.00;;;9.93;100.00
65760;BME280;52496;51.082;5.066;2023-03-14T06:17:22;98834.94;;;9.95;100.00
65760;BME280;52496;51.082;5.066;2023-03-14T06:19:52;98831.81;;;9.98;100.00
65760;BME280;52496;51.082;5.066;2023-03-14T06:22:23;98832.38;;;10.00;100.00
65760;BME280;52496;51.082;5.066;2023-03-14T06:24:53;98838.91;;;10.04;100.00
65760;BME280;52496;51.082;5.066;2023-03-14T06:27:24;98840.53;;;10.05;100.00
65760;BME280;52496;51.082;5.066;2023-03-14T06:29:55;98835.78;;;10.07;100.00
65760;BME280;52496;51.082;5.066;2023-03-14T06:32:26;98829.13;;;10.10;100.00
65760;BME280;52496;51.082;5.066;2023-03-14T06:34:56;98841.47;;;10.11;100.00
65760;BME280;52496;51.082;5.066;2023-03-14T06:37:31;98840.41;;;10.12;100.00
65760;BME280;52496;51.082;5.066;2023-03-14T06:40:01;98842.88;;;10.14;100.00
65760;BME280;52496;51.082;5.066;2023-03-14T06:42:33;98846.69;;;10.18;100.00
65760;BME280;52496;51.082;5.066;2023-03-14T06:45:04;98847.84;;;10.22;100.00
65760;BME280;52496;51.082;5.066;2023-03-14T06:47:37;98846.59;;;10.24;100.00
65760;BME280;52496;51.082;5.066;2023-03-14T06:50:09;98853.94;;;10.29;100.00
65760;BME280;52496;51.082;5.066;2023-03-14T06:52:40;98861.13;;;10.28;100.00
65760;BME280;52496;51.082;5.066;2023-03-14T06:55:17;98856.03;;;10.27;100.00
65760;BME280;52496;51.082;5.066;2023-03-14T06:57:48;98865.06;;;10.26;100.00
65760;BME280;52496;51.082;5.066;2023-03-14T07:00:19;98867.94;;;10.24;100.00
65760;BME280;52496;51.082;5.066;2023-03-14T07:02:49;98874.91;;;10.25;100.00
65760;BME280;52496;51.082;5.066;2023-03-14T07:05:20;98877.81;;;10.24;100.00
65760;BME280;52496;51.082;5.066;2023-03-14T07:07:51;98871.31;;;10.20;100.00
65760;BME280;52496;51.082;5.066;2023-03-14T07:10:22;98884.09;;;10.18;100.00
65760;BME280;52496;51.082;5.066;2023-03-14T07:12:52;98886.16;;;10.16;100.00
65760;BME280;52496;51.082;5.066;2023-03-14T07:15:23;98884.53;;;10.15;100.00
65760;BME280;52496;51.082;5.066;2023-03-14T07:17:54;98889.88;;;10.15;100.00
65760;BME280;52496;51.082;5.066;2023-03-14T07:23:52;98900.91;;;10.18;100.00
65760;BME280;52496;51.082;5.066;2023-03-14T07:26:22;98965.25;;;10.17;100.00
65760;BME280;52496;51.082;5.066;2023-03-14T07:28:53;98993.84;;;9.98;100.00
65760;BME280;52496;51.082;5.066;2023-03-14T07:31:24;99023.56;;;9.71;100.00
65760;BME280;52496;51.082;5.066;2023-03-14T07:33:55;99029.63;;;9.41;100.00
65760;BME280;52496;51.082;5.066;2023-03-14T07:39:53;99061.38;;;9.00;100.00
65760;BME280;52496;51.082;5.066;2023-03-14T07:42:24;99070.13;;;8.82;100.00
65760;BME280;52496;51.082;5.066;2023-03-14T07:44:58;99095.25;;;8.67;100.00
65760;BME280;52496;51.082;5.066;2023-03-14T07:47:28;99102.88;;;8.57;100.00
65760;BME280;52496;51.082;5.066;2023-03-14T07:49:59;99113.19;;;8.47;100.00
65760;BME280;52496;51.082;5.066;2023-03-14T07:52:29;99126.09;;;8.37;100.00
65760;BME280;52496;51.082;5.066;2023-03-14T07:55:00;99133.72;;;8.26;100.00
65760;BME280;52496;51.082;5.066;2023-03-14T07:57:30;99143.78;;;8.18;100.00
65760;BME280;52496;51.082;5.066;2023-03-14T08:00:03;99144.88;;;8.10;100.00
65760;BME280;52496;51.082;5.066;2023-03-14T08:02:35;99157.16;;;8.04;100.00
65760;BME280;52496;51.082;5.066;2023-03-14T08:05:15;99166.59;;;8.00;100.00
65760;BME280;52496;51.082;5.066;2023-03-14T08:07:45;99173.75;;;8.00;100.00
65760;BME280;52496;51.082;5.066;2023-03-14T08:10:16;99188.09;;;7.99;100.00
65760;BME280;52496;51.082;5.066;2023-03-14T08:12:57;99190.97;;;7.97;100.00
65760;BME280;52496;51.082;5.066;2023-03-14T08:15:29;99203.84;;;7.94;100.00
65760;BME280;52496;51.082;5.066;2023-03-14T08:18:00;99211.66;;;7.89;100.00
65760;BME280;52496;51.082;5.066;2023-03-14T08:20:31;99225.16;;;7.87;100.00
65760;BME280;52496;51.082;5.066;2023-03-14T08:23:01;99233.94;;;7.88;100.00
65760;BME280;52496;51.082;5.066;2023-03-14T08:25:32;99230.69;;;7.86;100.00
65760;BME280;52496;51.082;5.066;2023-03-14T08:28:03;99236.63;;;7.88;100.00
65760;BME280;52496;51.082;5.066;2023-03-14T08:30:34;99244.19;;;7.91;100.00
65760;BME280;52496;51.082;5.066;2023-03-14T08:33:05;99255.88;;;7.90;100.00
65760;BME280;52496;51.082;5.066;2023-03-14T08:35:37;99264.47;;;7.92;100.00
65760;BME280;52496;51.082;5.066;2023-03-14T08:38:09;99272.66;;;7.90;100.00
65760;BME280;52496;51.082;5.066;2023-03-14T08:40:40;99288.22;;;7.87;100.00
65760;BME280;52496;51.082;5.066;2023-03-14T08:43:11;99284.97;;;7.91;100.00
65760;BME280;52496;51.082;5.066;2023-03-14T08:45:42;99298.44;;;7.96;100.00
65760;BME280;52496;51.082;5.066;2023-03-14T08:48:12;99311.56;;;7.98;100.00
65760;BME280;52496;51.082;5.066;2023-03-14T08:50:50;99323.84;;;7.99;100.00
65760;BME280;52496;51.082;5.066;2023-03-14T08:53:21;99339.81;;;7.99;100.00
65760;BME280;52496;51.082;5.066;2023-03-14T08:55:53;99334.91;;;7.96;100.00
65760;BME280;52496;51.082;5.066;2023-03-14T08:58:24;99348.84;;;7.98;100.00
65760;BME280;52496;51.082;5.066;2023-03-14T09:00:55;99353.94;;;7.99;100.00
65760;BME280;52496;51.082;5.066;2023-03-14T09:03:25;99366.03;;;8.02;100.00
65760;BME280;52496;51.082;5.066;2023-03-14T09:06:01;99375.03;;;8.08;100.00
65760;BME280;52496;51.082;5.066;2023-03-14T09:08:33;99373.00;;;8.10;100.00
65760;BME280;52496;51.082;5.066;2023-03-14T09:11:07;99391.00;;;8.14;100.00
65760;BME280;52496;51.082;5.066;2023-03-14T09:13:38;99404.13;;;8.22;100.00
65760;BME280;52496;51.082;5.066;2023-03-14T09:16:10;99404.13;;;8.29;100.00
65760;BME280;52496;51.082;5.066;2023-03-14T09:18:41;99422.97;;;8.27;100.00
65760;BME280;52496;51.082;5.066;2023-03-14T09:21:12;99420.94;;;8.23;100.00
65760;BME280;52496;51.082;5.066;2023-03-14T09:23:42;99450.00;;;8.11;100.00
65760;BME280;52496;51.082;5.066;2023-03-14T09:26:13;99450.63;;;8.07;100.00
65760;BME280;52496;51.082;5.066;2023-03-14T09:28:44;99456.34;;;8.10;100.00
65760;BME280;52496;51.082;5.066;2023-03-14T09:31:14;99468.00;;;8.09;100.00
65760;BME280;52496;51.082;5.066;2023-03-14T09:33:45;99475.81;;;8.17;100.00
65760;BME280;52496;51.082;5.066;2023-03-14T09:36:15;99478.69;;;8.22;100.00
65760;BME280;52496;51.082;5.066;2023-03-14T09:38:46;99489.34;;;8.29;100.00
65760;BME280;52496;51.082;5.066;2023-03-14T09:41:27;99500.00;;;8.22;100.00
65760;BME280;52496;51.082;5.066;2023-03-14T09:44:16;99527.84;;;8.13;100.00
65760;BME280;52496;51.082;5.066;2023-03-14T09:46:50;99526.97;;;8.06;100.00
65760;BME280;52496;51.082;5.066;2023-03-14T09:49:31;99537.22;;;8.09;100.00
65760;BME280;52496;51.082;5.066;2023-03-14T09:52:17;99544.22;;;8.17;100.00
65760;BME280;52496;51.082;5.066;2023-03-14T09:54:54;99555.94;;;8.29;100.00
65760;BME280;52496;51.082;5.066;2023-03-14T09:57:27;99568.91;;;8.39;100.00
65760;BME280;52496;51.082;5.066;2023-03-14T10:00:03;99570.59;;;8.53;100.00
65760;BME280;52496;51.082;5.066;2023-03-14T10:02:52;99583.69;;;8.48;100.00
65760;BME280;52496;51.082;5.066;2023-03-14T10:05:25;99584.91;;;8.45;100.00
65760;BME280;52496;51.082;5.066;2023-03-14T10:07:56;99594.34;;;8.48;100.00
65760;BME280;52496;51.082;5.066;2023-03-14T10:10:27;99593.31;;;8.49;100.00
65760;BME280;52496;51.082;5.066;2023-03-14T10:13:14;99608.47;;;8.42;100.00
65760;BME280;52496;51.082;5.066;2023-03-14T10:15:52;99616.19;;;8.37;100.00
65760;BME280;52496;51.082;5.066;2023-03-14T10:18:23;99637.34;;;8.45;100.00
65760;BME280;52496;51.082;5.066;2023-03-14T10:23:47;99655.03;;;8.53;100.00
65760;BME280;52496;51.082;5.066;2023-03-14T10:26:28;99671.56;;;8.41;100.00
65760;BME280;52496;51.082;5.066;2023-03-14T10:29:02;99675.00;;;8.35;100.00
65760;BME280;52496;51.082;5.066;2023-03-14T10:34:33;99699.75;;;8.22;100.00
65760;BME280;52496;51.082;5.066;2023-03-14T10:39:54;99727.53;;;8.13;100.00
65760;BME280;52496;51.082;5.066;2023-03-14T10:42:29;99744.13;;;8.15;100.00
65760;BME280;52496;51.082;5.066;2023-03-14T10:45:04;99745.78;;;8.16;100.00
65760;BME280;52496;51.082;5.066;2023-03-14T10:47:48;99742.56;;;8.27;100.00
65760;BME280;52496;51.082;5.066;2023-03-14T10:50:30;99750.88;;;8.46;100.00
65760;BME280;52496;51.082;5.066;2023-03-14T10:53:02;99757.16;;;8.73;100.00
65760;BME280;52496;51.082;5.066;2023-03-14T10:55:44;99771.81;;;8.97;100.00
65760;BME280;52496;51.082;5.066;2023-03-14T10:58:23;99774.09;;;9.07;100.00
65760;BME280;52496;51.082;5.066;2023-03-14T11:03:42;99788.88;;;9.03;100.00
65760;BME280;52496;51.082;5.066;2023-03-14T11:09:45;99824.41;;;8.68;100.00
65760;BME280;52496;51.082;5.066;2023-03-14T11:13:01;99842.09;;;8.48;100.00
65760;BME280;52496;51.082;5.066;2023-03-14T11:27:32;99881.38;;;9.02;100.00
65760;BME280;52496;51.082;5.066;2023-03-14T11:30:39;99896.03;;;9.19;100.00
65760;BME280;52496;51.082;5.066;2023-03-14T11:33:17;99893.06;;;9.49;100.00
65760;BME280;52496;51.082;5.066;2023-03-14T11:35:58;99903.63;;;9.84;100.00
65760;BME280;52496;51.082;5.066;2023-03-14T11:38:50;99900.38;;;10.22;100.00
65760;BME280;52496;51.082;5.066;2023-03-14T11:41:32;99914.63;;;10.36;100.00
65760;BME280;52496;51.082;5.066;2023-03-14T11:44:10;99913.16;;;10.33;100.00
65760;BME280;52496;51.082;5.066;2023-03-14T11:47:08;99927.91;;;10.16;100.00
65760;BME280;52496;51.082;5.066;2023-03-14T11:49:45;99936.91;;;9.88;100.00
65760;BME280;52496;51.082;5.066;2023-03-14T11:52:27;99937.47;;;9.63;100.00
65760;BME280;52496;51.082;5.066;2023-03-14T11:55:05;99954.00;;;9.39;100.00
65760;BME280;52496;51.082;5.066;2023-03-14T11:57:39;99954.50;;;9.21;100.00
65760;BME280;52496;51.082;5.066;2023-03-14T12:00:21;99967.75;;;9.01;100.00
65760;BME280;52496;51.082;5.066;2023-03-14T12:09:01;100028.75;;;8.03;100.00
65760;BME280;52496;51.082;5.066;2023-03-14T12:11:50;100051.66;;;7.39;100.00
65760;BME280;52496;51.082;5.066;2023-03-14T12:14:29;100061.13;;;6.88;100.00
65760;BME280;52496;51.082;5.066;2023-03-14T12:17:21;100055.97;;;6.49;100.00
65760;BME280;52496;51.082;5.066;2023-03-14T12:20:17;100064.22;;;6.31;100.00
65760;BME280;52496;51.082;5.066;2023-03-14T12:23:03;100057.81;;;6.17;100.00
65760;BME280;52496;51.082;5.066;2023-03-14T12:25:35;100054.69;;;6.14;100.00
65760;BME280;52496;51.082;5.066;2023-03-14T12:28:20;100061.94;;;6.20;100.00
65760;BME280;52496;51.082;5.066;2023-03-14T12:30:51;100063.84;;;6.34;100.00
65760;BME280;52496;51.082;5.066;2023-03-14T12:33:29;100055.13;;;6.49;100.00
65760;BME280;52496;51.082;5.066;2023-03-14T12:36:03;100058.13;;;6.69;100.00
65760;BME280;52496;51.082;5.066;2023-03-14T12:41:24;100063.69;;;6.97;100.00
65760;BME280;52496;51.082;5.066;2023-03-14T12:49:50;100083.81;;;7.14;100.00
65760;BME280;52496;51.082;5.066;2023-03-14T13:00:34;100130.25;;;7.26;100.00
65760;BME280;52496;51.082;5.066;2023-03-14T13:05:56;100138.56;;;7.23;100.00
65760;BME280;52496;51.082;5.066;2023-03-14T13:08:44;100144.00;;;7.30;100.00
65760;BME280;52496;51.082;5.066;2023-03-14T13:11:18;100140.84;;;7.49;100.00
65760;BME280;52496;51.082;5.066;2023-03-14T13:13:52;100141.13;;;7.69;100.00
65760;BME280;52496;51.082;5.066;2023-03-14T13:16:27;100146.66;;;7.82;100.00
65760;BME280;52496;51.082;5.066;2023-03-14T13:19:01;100150.50;;;7.95;100.00
65760;BME280;52496;51.082;5.066;2023-03-14T13:21:37;100162.34;;;8.07;100.00
65760;BME280;52496;51.082;5.066;2023-03-14T13:24:21;100165.38;;;8.19;100.00
65760;BME280;52496;51.082;5.066;2023-03-14T13:26:54;100173.69;;;8.31;100.00
65760;BME280;52496;51.082;5.066;2023-03-14T13:29:27;100183.91;;;8.42;100.00
65760;BME280;52496;51.082;5.066;2023-03-14T13:32:01;100187.13;;;8.52;100.00
65760;BME280;52496;51.082;5.066;2023-03-14T13:34:33;100186.00;;;8.61;100.00
65760;BME280;52496;51.082;5.066;2023-03-14T13:37:04;100196.91;;;8.66;100.00
65760;BME280;52496;51.082;5.066;2023-03-14T13:39:39;100205.81;;;8.73;100.00
65760;BME280;52496;51.082;5.066;2023-03-14T13:42:13;100212.22;;;8.79;100.00
65760;BME280;52496;51.082;5.066;2023-03-14T13:44:46;100215.75;;;8.80;100.00
65760;BME280;52496;51.082;5.066;2023-03-14T13:47:19;100218.31;;;8.73;100.00
65760;BME280;52496;51.082;5.066;2023-03-14T13:49:50;100229.16;;;8.71;100.00
65760;BME280;52496;51.082;5.066;2023-03-14T13:52:35;100235.22;;;8.80;100.00
65760;BME280;52496;51.082;5.066;2023-03-14T13:55:15;100241.66;;;8.86;100.00
65760;BME280;52496;51.082;5.066;2023-03-14T13:57:51;100252.56;;;8.91;100.00
65760;BME280;52496;51.082;5.066;2023-03-14T14:00:27;100259.34;;;8.93;91.91
65760;BME280;52496;51.082;5.066;2023-03-14T14:02:58;100262.22;;;8.92;89.29
65760;BME280;52496;51.082;5.066;2023-03-14T14:05:30;100268.75;;;8.89;87.05
65760;BME280;52496;51.082;5.066;2023-03-14T14:08:03;100271.59;;;8.88;87.20
65760;BME280;52496;51.082;5.066;2023-03-14T14:10:36;100277.56;;;8.90;87.03
65760;BME280;52496;51.082;5.066;2023-03-14T14:13:11;100281.50;;;8.94;85.70
65760;BME280;52496;51.082;5.066;2023-03-14T14:15:47;100287.38;;;9.04;86.20
65760;BME280;52496;51.082;5.066;2023-03-14T14:18:21;100299.84;;;9.18;85.02
65760;BME280;52496;51.082;5.066;2023-03-14T14:20:56;100313.38;;;9.17;77.90
65760;BME280;52496;51.082;5.066;2023-03-14T14:23:28;100313.38;;;9.17;77.94
65760;BME280;52496;51.082;5.066;2023-03-14T14:25:59;100328.19;;;9.19;74.97
65760;BME280;52496;51.082;5.066;2023-03-14T14:28:33;100333.53;;;9.19;73.74
65760;BME280;52496;51.082;5.066;2023-03-14T14:31:23;100347.25;;;9.16;66.16
65760;BME280;52496;51.082;5.066;2023-03-14T14:33:58;100356.59;;;9.12;66.62
65760;BME280;52496;51.082;5.066;2023-03-14T14:36:31;100365.34;;;9.06;65.40
65760;BME280;52496;51.082;5.066;2023-03-14T14:39:11;100368.78;;;9.00;62.40